Time;durP1;ratioP1;P1;durP2;ratioP2;P2;SDS_P1;SDS_P2;PMS_P1;PMS_P2;Temp;Humidity;BMP_temperature;BMP_pressure;BME280_temperature;BME280_humidity;BME280_pressure;Samples;Min_cycle;Max_cycle;Signal;HPM_P1;HPM_P2
2022/09/17 00:00:12;;;;;;;10.77;6.13;;;;;;;-141.28;100.00;47842.31;5092411;28;20316;-76
2022/09/17 00:02:39;;;;;;;13.33;5.87;;;;;;;-141.28;100.00;47840.34;5092175;28;20199;-76
2022/09/17 00:05:08;;;;;;;12.77;6.33;;;;;;;-141.28;100.00;47844.28;5107129;28;20263;-75
2022/09/17 00:07:35;;;;;;;10.27;6.30;;;;;;;-141.28;100.00;47846.25;5102739;28;20210;-75
2022/09/17 00:10:04;;;;;;;16.60;7.13;;;;;;;-141.28;100.00;47850.16;5078908;28;20231;-76
2022/09/17 00:12:34;;;;;;;11.07;6.47;;;;;;;-141.28;100.00;47854.09;5092225;28;20202;-74
2022/09/17 00:15:01;;;;;;;14.93;7.27;;;;;;;-141.28;100.00;47834.47;5091993;28;20199;-75
2022/09/17 00:17:28;;;;;;;16.13;7.57;;;;;;;-141.28;100.00;47838.41;5082481;28;20290;-75
2022/09/17 00:19:55;;;;;;;11.87;6.70;;;;;;;-141.28;100.00;47840.34;5078127;28;20672;-76
2022/09/17 00:22:23;;;;;;;11.83;7.10;;;;;;;-141.28;100.00;47834.47;5101441;28;20207;-76
2022/09/17 00:24:52;;;;;;;16.27;6.90;;;;;;;-141.28;100.00;47838.41;5091187;28;20195;-77
2022/09/17 00:27:19;;;;;;;16.63;6.37;;;;;;;-141.28;100.00;47834.47;5102327;28;20203;-77
2022/09/17 00:29:48;;;;;;;10.27;5.83;;;;;;;-141.28;100.00;47836.44;5097425;28;20222;-75
2022/09/17 00:32:17;;;;;;;13.90;6.43;;;;;;;-141.28;100.00;47836.44;5111856;28;20653;-75
2022/09/17 00:34:45;;;;;;;9.57;5.40;;;;;;;-141.28;100.00;47834.47;5111273;28;20201;-75
2022/09/17 00:37:12;;;;;;;13.80;6.17;;;;;;;-141.28;100.00;47834.47;5120373;28;20198;-74
2022/09/17 00:39:39;;;;;;;9.10;5.23;;;;;;;-141.28;100.00;47838.41;5111815;28;20210;-76
2022/09/17 00:42:09;;;;;;;10.03;6.00;;;;;;;-141.28;100.00;47836.44;5091030;28;20562;-74
2022/09/17 00:44:46;;;;;;;10.87;5.73;;;;;;;-141.28;100.00;47846.25;5080913;28;20287;-76
2022/09/17 00:47:23;;;;;;;9.83;5.77;;;;;;;-141.28;100.00;47846.25;5094819;28;20763;-74
2022/09/17 00:49:54;;;;;;;13.10;5.73;;;;;;;-141.28;100.00;47846.25;5092350;28;20219;-75
2022/09/17 00:52:26;;;;;;;10.13;5.43;;;;;;;-141.28;100.00;47838.41;5083559;28;20286;-76
2022/09/17 00:54:58;;;;;;;13.60;6.20;;;;;;;-141.28;100.00;47842.31;5085148;28;20202;-75
2022/09/17 00:57:26;;;;;;;12.63;6.30;;;;;;;-141.28;100.00;47836.44;5071909;28;20223;-75
2022/09/17 00:59:54;;;;;;;11.50;5.93;;;;;;;-141.28;100.00;47838.41;5085667;28;20277;-77
2022/09/17 01:02:23;;;;;;;12.90;7.10;;;;;;;-141.28;100.00;47838.41;5091417;28;20199;-75
2022/09/17 01:04:50;;;;;;;10.90;5.77;;;;;;;-141.28;100.00;47832.50;5077848;28;20620;-76
2022/09/17 01:07:33;;;;;;;13.90;5.57;;;;;;;-141.28;100.00;47842.31;5083422;28;20240;-76
2022/09/17 01:10:12;;;;;;;13.87;6.70;;;;;;;-141.28;100.00;47846.25;5089232;28;20230;-74
2022/09/17 01:12:59;;;;;;;12.57;5.73;;;;;;;-141.28;100.00;47850.16;5080082;28;20282;-77
2022/09/17 01:15:35;;;;;;;9.60;5.53;;;;;;;-141.28;100.00;47842.31;5072669;28;20199;-74
2022/09/17 01:18:28;;;;;;;8.20;5.67;;;;;;;-141.28;100.00;47852.13;5081847;28;20592;-75
2022/09/17 01:21:39;;;;;;;12.20;6.23;;;;;;;-141.28;100.00;47861.94;5084758;28;20189;-75
2022/09/17 01:24:38;;;;;;;12.13;5.90;;;;;;;-141.28;100.00;47852.13;5090172;28;20196;-76
2022/09/17 01:27:31;;;;;;;11.60;6.60;;;;;;;-141.28;100.00;47858.00;5090734;28;20195;-76
2022/09/17 01:30:16;;;;;;;19.47;7.70;;;;;;;-141.28;100.00;47838.41;5104135;28;20222;-75
2022/09/17 01:33:19;;;;;;;10.63;7.00;;;;;;;-141.28;100.00;47830.56;5100908;28;20208;-77
2022/09/17 01:36:14;;;;;;;10.37;7.07;;;;;;;-141.28;100.00;47834.47;5079865;28;20199;-75
2022/09/17 01:38:48;;;;;;;13.43;6.93;;;;;;;-141.28;100.00;47810.94;5103115;28;20219;-74
2022/09/17 01:41:22;;;;;;;13.67;6.43;;;;;;;-141.28;100.00;47814.84;5103327;28;20226;-75
2022/09/17 01:43:55;;;;;;;12.47;6.80;;;;;;;-141.28;100.00;47805.06;5078909;28;20711;-76
2022/09/17 01:46:28;;;;;;;12.00;6.33;;;;;;;-141.28;100.00;47812.91;5090341;28;20217;-75
2022/09/17 01:49:00;;;;;;;10.93;6.50;;;;;;;-141.28;100.00;47808.97;5083687;28;20252;-76
2022/09/17 01:51:36;;;;;;;11.80;5.70;;;;;;;-141.28;100.00;47812.91;5094104;28;20245;-75
2022/09/17 01:54:08;;;;;;;11.60;6.30;;;;;;;-141.28;100.00;47810.94;5091292;28;20252;-75
2022/09/17 01:56:39;;;;;;;15.97;6.20;;;;;;;-141.28;100.00;47818.78;5109231;28;20685;-75
2022/09/17 01:59:12;;;;;;;8.47;5.80;;;;;;;-141.28;100.00;47818.78;5111458;28;20222;-76
2022/09/17 02:01:43;;;;;;;11.53;5.90;;;;;;;-141.28;100.00;47826.63;5091440;28;20196;-73
2022/09/17 02:04:15;;;;;;;12.77;5.57;;;;;;;-141.28;100.00;47820.75;5079667;28;20346;-74
2022/09/17 02:06:51;;;;;;;9.20;6.33;;;;;;;-141.28;100.00;47822.72;5094477;28;20239;-76
2022/09/17 02:09:23;;;;;;;17.07;6.77;;;;;;;-141.28;100.00;47822.72;5090830;28;20277;-75
2022/09/17 02:11:58;;;;;;;14.37;5.73;;;;;;;-141.28;100.00;47818.78;5074611;28;20257;-74
2022/09/17 02:14:29;;;;;;;12.17;5.60;;;;;;;-141.28;100.00;47826.63;5074749;28;20199;-76
2022/09/17 02:17:03;;;;;;;9.00;4.70;;;;;;;-141.28;100.00;47818.78;5074302;28;20655;-76
2022/09/17 02:19:36;;;;;;;13.73;5.03;;;;;;;-141.28;100.00;47822.72;5074478;28;20261;-76
2022/09/17 02:22:15;;;;;;;6.77;4.20;;;;;;;-141.28;100.00;47826.63;5088494;28;20198;-76
2022/09/17 02:24:48;;;;;;;8.00;5.17;;;;;;;-141.28;100.00;47826.63;5084741;28;20206;-77
2022/09/17 02:27:23;;;;;;;10.33;5.10;;;;;;;-141.28;100.00;47830.56;5095510;28;20196;-76
2022/09/17 02:29:50;;;;;;;7.97;4.57;;;;;;;-141.28;100.00;47830.56;5082992;28;20224;-75
2022/09/17 02:32:18;;;;;;;11.17;5.33;;;;;;;-141.28;100.00;47830.56;5089772;28;20668;-75
2022/09/17 02:34:47;;;;;;;8.27;4.77;;;;;;;-141.28;100.00;47830.56;5074499;28;20199;-75
2022/09/17 02:37:15;;;;;;;10.40;4.70;;;;;;;-141.28;100.00;47834.47;5074857;28;20261;-74
2022/09/17 02:39:42;;;;;;;7.87;4.70;;;;;;;-141.28;100.00;47830.56;5085241;28;20683;-75
2022/09/17 02:42:22;;;;;;;8.80;4.20;;;;;;;-141.28;100.00;47838.41;5078846;28;20208;-74
2022/09/17 02:44:59;;;;;;;10.87;4.00;;;;;;;-141.28;100.00;47854.09;5078013;28;20587;-74
2022/09/17 02:47:58;;;;;;;7.57;4.43;;;;;;;-141.28;100.00;47865.84;5075032;28;20281;-75
2022/09/17 02:50:35;;;;;;;10.10;4.83;;;;;;;-141.28;100.00;47865.84;5082728;28;20227;-74
2022/09/17 02:53:30;;;;;;;9.00;4.83;;;;;;;-141.28;100.00;47863.91;5077046;28;20257;-75
2022/09/17 02:56:07;;;;;;;11.57;4.67;;;;;;;-141.28;100.00;47861.94;5074272;28;20212;-76
2022/09/17 02:58:41;;;;;;;8.23;5.00;;;;;;;-141.28;100.00;47854.09;5082944;28;20658;-75
2022/09/17 03:01:18;;;;;;;12.43;4.80;;;;;;;-141.28;100.00;47854.09;5077277;28;20625;-76
2022/09/17 03:03:49;;;;;;;9.63;4.27;;;;;;;-141.28;100.00;47852.13;5073625;28;20579;-76
2022/09/17 03:06:17;;;;;;;10.70;4.53;;;;;;;-141.28;100.00;47846.25;5073315;28;20224;-75
2022/09/17 03:08:46;;;;;;;7.47;4.63;;;;;;;-141.28;100.00;47850.16;5080299;28;20192;-75
2022/09/17 03:11:14;;;;;;;9.93;4.90;;;;;;;-141.28;100.00;47842.31;5093190;28;20231;-76
2022/09/17 03:13:41;;;;;;;6.80;4.93;;;;;;;-141.28;100.00;47854.09;5092641;28;20196;-75
2022/09/17 03:16:08;;;;;;;8.53;4.70;;;;;;;-141.28;100.00;47850.16;5102522;28;20190;-77
2022/09/17 03:18:35;;;;;;;11.73;4.90;;;;;;;-141.28;100.00;47852.13;5096833;28;20710;-75
2022/09/17 03:21:04;;;;;;;9.73;4.50;;;;;;;-141.28;100.00;47858.00;5112357;28;20203;-75
2022/09/17 03:23:32;;;;;;;15.53;5.13;;;;;;;-141.28;100.00;47863.91;5111602;28;20191;-76
2022/09/17 03:26:00;;;;;;;9.70;5.00;;;;;;;-141.28;100.00;47863.91;5114066;28;20202;-74
2022/09/17 03:28:28;;;;;;;7.10;4.50;;;;;;;-141.28;100.00;47856.03;5104947;28;20207;-74
2022/09/17 03:30:55;;;;;;;10.30;4.67;;;;;;;-141.28;100.00;47865.84;5103761;28;20219;-73
2022/09/17 03:33:22;;;;;;;10.70;3.77;;;;;;;-141.28;100.00;47865.84;5110873;28;20202;-75
2022/09/17 03:36:11;;;;;;;12.50;4.00;;;;;;;-141.28;100.00;47889.38;5112138;28;20290;-78
2022/09/17 03:38:38;;;;;;;8.40;3.23;;;;;;;-141.28;100.00;47875.66;5091395;28;20201;-74
2022/09/17 03:41:07;;;;;;;6.13;3.33;;;;;;;-141.28;100.00;47879.59;5110894;28;20311;-77
2022/09/17 03:43:35;;;;;;;7.97;3.53;;;;;;;-141.28;100.00;47893.31;5112569;28;20190;-76
2022/09/17 03:46:02;;;;;;;9.77;3.30;;;;;;;-141.28;100.00;47895.28;5110619;28;20187;-76
2022/09/17 03:48:31;;;;;;;5.67;3.37;;;;;;;-141.28;100.00;47907.03;5101041;28;20219;-76
2022/09/17 03:50:59;;;;;;;8.40;3.00;;;;;;;-141.28;100.00;47918.81;5096146;28;20223;-75
2022/09/17 03:53:26;;;;;;;7.23;3.60;;;;;;;-141.28;100.00;47928.63;5072705;28;20666;-75
2022/09/17 03:55:53;;;;;;;8.30;3.67;;;;;;;-141.28;100.00;47936.47;5085628;28;20198;-76
2022/09/17 03:58:22;;;;;;;12.60;3.23;;;;;;;-141.28;100.00;47944.31;5085799;28;20210;-75
2022/09/17 04:00:52;;;;;;;13.90;3.40;;;;;;;-141.28;100.00;47952.16;5111861;28;20194;-77
2022/09/17 04:03:20;;;;;;;8.57;3.33;;;;;;;-141.28;100.00;47956.06;5112617;28;20210;-76
2022/09/17 04:05:47;;;;;;;8.03;3.30;;;;;;;-141.28;100.00;47971.78;5095533;28;20227;-73
2022/09/17 04:08:14;;;;;;;5.00;3.10;;;;;;;-141.28;100.00;47975.69;5072740;28;20196;-75
2022/09/17 04:10:43;;;;;;;7.40;3.33;;;;;;;-141.28;100.00;47965.88;5071850;28;20224;-74
2022/09/17 04:13:10;;;;;;;7.47;3.33;;;;;;;-141.28;100.00;47993.34;5081575;28;20196;-76
2022/09/17 04:15:40;;;;;;;7.27;3.70;;;;;;;-141.28;100.00;48005.13;5092039;28;20252;-75
2022/09/17 04:18:07;;;;;;;12.10;3.87;;;;;;;-141.28;100.00;47997.28;5082209;28;20200;-76
2022/09/17 04:20:36;;;;;;;10.10;4.00;;;;;;;-141.28;100.00;48009.03;5076949;28;20219;-74
2022/09/17 04:23:03;;;;;;;8.30;4.10;;;;;;;-141.28;100.00;47991.38;5074722;28;20271;-75
2022/09/17 04:25:31;;;;;;;7.57;4.10;;;;;;;-141.28;100.00;47999.22;5086945;28;20199;-75
2022/09/17 04:27:58;;;;;;;7.53;3.93;;;;;;;-141.28;100.00;47989.41;5078114;28;20253;-74
2022/09/17 04:30:26;;;;;;;6.03;3.80;;;;;;;-141.28;100.00;47979.63;5077728;28;20231;-77
2022/09/17 04:32:55;;;;;;;10.37;4.57;;;;;;;-141.28;100.00;47975.69;5081508;28;20203;-76
2022/09/17 04:35:22;;;;;;;8.70;3.90;;;;;;;-141.28;100.00;47963.94;5068953;28;20200;-74
2022/09/17 04:37:54;;;;;;;14.60;4.50;;;;;;;-141.28;100.00;47963.94;5073050;28;20200;-77
2022/09/17 04:40:21;;;;;;;8.60;4.37;;;;;;;-141.28;100.00;47952.16;5078605;28;20637;-75
2022/09/17 04:42:49;;;;;;;7.67;4.13;;;;;;;-141.28;100.00;47936.47;5097328;28;20195;-74
2022/09/17 04:45:19;;;;;;;8.67;4.40;;;;;;;-141.28;100.00;47940.38;5077532;28;20200;-75
2022/09/17 04:47:46;;;;;;;7.00;4.13;;;;;;;-141.28;100.00;47936.47;5072321;28;20285;-76
2022/09/17 04:50:15;;;;;;;10.10;4.17;;;;;;;-141.28;100.00;47936.47;5091208;28;20713;-76
2022/09/17 04:52:43;;;;;;;7.13;4.10;;;;;;;-141.28;100.00;47936.47;5104611;28;20203;-75
2022/09/17 04:55:12;;;;;;;8.63;4.93;;;;;;;-141.28;100.00;47930.59;5071666;28;20228;-75
2022/09/17 04:57:39;;;;;;;7.70;4.90;;;;;;;-141.28;100.00;47932.53;5071962;28;20704;-73
2022/09/17 05:00:09;;;;;;;11.77;5.50;;;;;;;-141.28;100.00;47928.63;5079480;28;20203;-75
2022/09/17 05:02:38;;;;;;;12.23;6.33;;;;;;;-141.28;100.00;47928.63;5077872;28;20262;-76
2022/09/17 05:05:05;;;;;;;14.23;7.23;;;;;;;-141.28;100.00;47912.94;5091305;28;20219;-75
2022/09/17 05:07:33;;;;;;;10.77;7.10;;;;;;;-141.28;100.00;47924.69;5105061;28;20231;-75
2022/09/17 05:10:00;;;;;;;19.17;7.43;;;;;;;-141.28;100.00;47928.63;5091453;28;20200;-76
2022/09/17 05:12:27;;;;;;;16.00;7.80;;;;;;;-141.28;100.00;47912.94;5088528;28;20198;-78
2022/09/17 05:14:55;;;;;;;15.37;6.73;;;;;;;-141.28;100.00;47924.69;5081514;28;20203;-75
2022/09/17 05:17:22;;;;;;;12.73;6.30;;;;;;;-141.28;100.00;47914.88;5088878;28;20207;-77
2022/09/17 05:19:50;;;;;;;19.60;6.77;;;;;;;-141.28;100.00;47912.94;5082250;28;20199;-78
2022/09/17 05:22:18;;;;;;;12.97;5.90;;;;;;;-141.28;100.00;47920.78;5074632;28;20688;-76
2022/09/17 05:24:46;;;;;;;9.17;5.37;;;;;;;-141.28;100.00;47912.94;5071672;28;20701;-76
2022/09/17 05:27:16;;;;;;;12.73;5.57;;;;;;;-141.28;100.00;47926.66;5072405;28;20199;-76
2022/09/17 05:29:44;;;;;;;11.20;5.80;;;;;;;-141.28;100.00;47928.63;5072421;28;20193;-77
2022/09/17 05:32:12;;;;;;;14.57;6.10;;;;;;;-141.28;100.00;47930.59;5090903;28;20338;-76
2022/09/17 05:34:41;;;;;;;10.93;5.70;;;;;;;-141.28;100.00;47920.78;5078217;28;20210;-75
2022/09/17 05:37:10;;;;;;;12.60;6.00;;;;;;;-141.28;100.00;47914.88;5072332;28;20203;-76
2022/09/17 05:39:37;;;;;;;13.13;5.47;;;;;;;-141.28;100.00;47909.00;5087902;28;20214;-75
2022/09/17 05:42:19;;;;;;;8.70;5.60;;;;;;;-141.28;100.00;47914.88;5088141;28;20561;-74
2022/09/17 05:44:46;;;;;;;12.53;6.17;;;;;;;-141.28;100.00;47910.97;5087161;28;20238;-76
2022/09/17 05:47:13;;;;;;;12.00;5.67;;;;;;;-141.28;100.00;47903.13;5105640;28;20266;-75
2022/09/17 05:49:41;;;;;;;11.10;5.73;;;;;;;-141.28;100.00;47901.16;5099312;28;20191;-76
2022/09/17 05:52:09;;;;;;;10.00;5.63;;;;;;;-141.28;100.00;47895.28;5103670;28;20284;-76
2022/09/17 05:54:36;;;;;;;11.23;5.63;;;;;;;-141.28;100.00;47897.25;5097949;28;20206;-75
2022/09/17 05:57:05;;;;;;;15.03;5.80;;;;;;;-141.28;100.00;47905.09;5104080;28;20199;-75
2022/09/17 05:59:32;;;;;;;10.57;5.57;;;;;;;-141.28;100.00;47899.19;5097642;28;20203;-76
2022/09/17 06:02:00;;;;;;;17.70;5.93;;;;;;;-141.28;100.00;47893.31;5094757;28;20196;-76
2022/09/17 06:04:27;;;;;;;16.93;6.27;;;;;;;-141.28;100.00;47897.25;5080476;28;20718;-75
2022/09/17 06:06:54;;;;;;;12.90;5.43;;;;;;;-141.28;100.00;47891.34;5094327;28;20625;-76
2022/09/17 06:09:21;;;;;;;12.23;5.93;;;;;;;-141.28;100.00;47897.25;5110721;28;20202;-75
2022/09/17 06:11:50;;;;;;;10.03;6.20;;;;;;;-141.28;100.00;47897.25;5102931;28;20670;-75
2022/09/17 06:14:18;;;;;;;9.23;5.77;;;;;;;-141.28;100.00;47905.09;5093444;28;20203;-76
2022/09/17 06:16:48;;;;;;;13.33;6.87;;;;;;;-141.28;100.00;47901.16;5094121;28;20223;-78
2022/09/17 06:19:16;;;;;;;10.83;6.27;;;;;;;-141.28;100.00;47891.34;5112248;28;20203;-81
2022/09/17 06:21:44;;;;;;;10.30;6.40;;;;;;;-141.28;100.00;47889.38;5100892;28;20203;-76
2022/09/17 06:24:11;;;;;;;12.77;6.37;;;;;;;-141.28;100.00;47909.00;5111373;28;20186;-76
2022/09/17 06:26:39;;;;;;;18.83;6.20;;;;;;;-141.28;100.00;47881.53;5113241;28;20221;-75
2022/09/17 06:29:06;;;;;;;12.50;6.10;;;;;;;-141.28;100.00;47889.38;5099083;28;20292;-76
2022/09/17 06:31:35;;;;;;;12.67;7.03;;;;;;;-141.28;100.00;47897.25;5113914;28;20234;-75
2022/09/17 06:34:04;;;;;;;14.43;6.23;;;;;;;-141.28;100.00;47889.38;5080441;28;20208;-75
2022/09/17 06:36:31;;;;;;;14.53;6.17;;;;;;;-141.28;100.00;47897.25;5092410;28;20290;-76
2022/09/17 06:39:00;;;;;;;14.27;6.10;;;;;;;-141.28;100.00;47897.25;5093316;28;20200;-75
2022/09/17 06:41:27;;;;;;;12.67;6.07;;;;;;;-141.28;100.00;47895.28;5092278;28;20195;-75
2022/09/17 06:43:54;;;;;;;9.17;5.60;;;;;;;-141.28;100.00;47893.31;5093125;28;20202;-76
2022/09/17 06:46:21;;;;;;;17.10;6.37;;;;;;;-141.28;100.00;47885.47;5112314;28;20209;-74
2022/09/17 06:48:50;;;;;;;17.93;6.50;;;;;;;-141.28;100.00;47889.38;5119729;28;20199;-74
2022/09/17 06:51:17;;;;;;;14.67;6.60;;;;;;;-141.28;100.00;47895.28;5096870;28;20216;-77
2022/09/17 06:53:45;;;;;;;12.57;6.50;;;;;;;-141.28;100.00;47897.25;5099563;28;20195;-76
2022/09/17 06:56:12;;;;;;;14.47;5.40;;;;;;;-141.28;100.00;47895.28;5103767;28;20195;-76
2022/09/17 06:58:40;;;;;;;16.10;5.90;;;;;;;-141.28;100.00;47893.31;5083461;28;20252;-76
2022/09/17 07:01:08;;;;;;;12.73;5.90;;;;;;;-141.28;100.00;47901.16;5094366;28;20640;-76
2022/09/17 07:03:37;;;;;;;14.60;5.20;;;;;;;-141.28;100.00;47901.16;5090138;28;20219;-76
2022/09/17 07:06:09;;;;;;;13.17;5.53;;;;;;;-141.28;100.00;47905.09;5079491;28;20315;-73
2022/09/17 07:08:36;;;;;;;16.47;5.37;;;;;;;-141.28;100.00;47914.88;5075136;28;20596;-76
2022/09/17 07:11:04;;;;;;;12.77;5.33;;;;;;;-141.28;100.00;47912.94;5079764;28;20231;-74
2022/09/17 07:13:32;;;;;;;17.13;5.20;;;;;;;-141.28;100.00;47905.09;5105861;28;20191;-76
2022/09/17 07:16:02;;;;;;;16.60;6.13;;;;;;;-141.28;100.00;47926.66;5080518;28;20188;-76
2022/09/17 07:18:29;;;;;;;10.50;5.07;;;;;;;-141.28;100.00;47936.47;5079780;28;20200;-77
2022/09/17 07:20:58;;;;;;;13.00;5.50;;;;;;;-141.28;100.00;47946.28;5101987;28;20655;-77
2022/09/17 07:23:28;;;;;;;12.43;4.93;;;;;;;-141.28;100.00;47967.84;5081649;28;20655;-76
2022/09/17 07:25:56;;;;;;;13.03;4.87;;;;;;;-141.28;100.00;47991.38;5074529;28;20192;-76
2022/09/17 07:28:24;;;;;;;11.20;4.50;;;;;;;-141.28;100.00;48020.81;5073108;28;20203;-77
2022/09/17 07:30:52;;;;;;;12.13;4.77;;;;;;;-141.28;100.00;48087.50;5078909;28;20224;-76
2022/09/17 07:33:24;;;;;;;15.00;4.50;;;;;;;-141.28;100.00;48156.16;5080567;28;20623;-76
2022/09/17 07:35:56;;;;;;;13.83;5.07;;;;;;;-141.28;100.00;48256.19;5080650;28;20191;-78
2022/09/17 07:38:24;;;;;;;14.17;5.17;;;;;;;-141.28;100.00;48291.50;5080232;28;20219;-76
2022/09/17 07:41:00;;;;;;;11.70;4.07;;;;;;;-141.28;100.00;48346.41;5086044;28;20202;-76
2022/09/17 07:43:28;;;;;;;8.87;3.30;;;;;;;-141.28;100.00;48434.69;5074080;28;20226;-74
2022/09/17 07:45:58;;;;;;;6.73;2.97;;;;;;;-141.28;100.00;48611.25;5073403;28;20202;-76
2022/09/17 07:48:28;;;;;;;4.47;2.67;;;;;;;-141.28;100.00;48793.69;5091103;28;20247;-76
2022/09/17 07:50:55;;;;;;;9.70;3.30;;;;;;;-141.28;100.00;48803.50;5092700;28;20708;-78
2022/09/17 07:53:23;;;;;;;8.20;2.90;;;;;;;-141.28;100.00;48889.84;5086644;28;20560;-75
2022/09/17 07:55:53;;;;;;;8.27;3.03;;;;;;;-141.28;100.00;49027.19;5085308;28;20196;-76
2022/09/17 07:58:30;;;;;;;5.53;2.60;;;;;;;-141.28;100.00;49166.47;5085862;28;20196;-75
2022/09/17 08:01:01;;;;;;;5.77;2.80;;;;;;;-141.28;100.00;49292.06;5087161;28;20191;-75
2022/09/17 08:03:30;;;;;;;8.73;3.13;;;;;;;-141.28;100.00;49303.84;5088558;28;20200;-74
2022/09/17 08:06:02;;;;;;;6.03;2.53;;;;;;;-141.28;100.00;49297.94;5095151;28;20667;-77
2022/09/17 08:08:31;;;;;;;10.23;2.77;;;;;;;-141.28;100.00;49270.47;5073720;28;20200;-76
2022/09/17 08:11:01;;;;;;;7.77;2.80;;;;;;;-141.28;100.00;49266.56;5076975;28;20371;-77
2022/09/17 08:13:30;;;;;;;9.83;3.33;;;;;;;-141.28;100.00;49243.00;5104753;28;20221;-76
2022/09/17 08:16:05;;;;;;;10.43;2.50;;;;;;;-141.28;100.00;49239.09;5093428;28;20592;-75
2022/09/17 08:18:35;;;;;;;8.00;2.50;;;;;;;-141.28;100.00;49266.56;5105104;28;20194;-76
2022/09/17 08:21:05;;;;;;;6.00;2.70;;;;;;;-141.28;100.00;49313.66;5085492;28;20673;-77
2022/09/17 08:23:35;;;;;;;6.67;2.70;;;;;;;-141.28;100.00;49388.22;5109817;28;20721;-75
2022/09/17 08:26:12;;;;;;;9.17;2.33;;;;;;;-141.28;100.00;49376.44;5093155;28;20238;-74
2022/09/17 08:28:45;;;;;;;8.67;2.80;;;;;;;-141.28;100.00;49394.09;5095041;28;20203;-76
2022/09/17 08:31:13;;;;;;;7.80;2.43;;;;;;;-141.28;100.00;49419.59;5110967;28;20225;-75
2022/09/17 08:33:41;;;;;;;5.33;2.40;;;;;;;-141.28;100.00;49403.91;5105291;28;20245;-76
2022/09/17 08:36:11;;;;;;;4.60;2.53;;;;;;;-141.28;100.00;49525.56;5091570;28;20231;-75
2022/09/17 08:38:39;;;;;;;7.67;2.60;;;;;;;-141.28;100.00;49627.59;5110033;28;20195;-76
2022/09/17 08:41:20;;;;;;;7.70;2.50;;;;;;;-141.28;100.00;49682.56;5111947;28;20199;-77
2022/09/17 08:43:59;;;;;;;4.97;1.80;;;;;;;-141.28;100.00;49792.44;5071707;28;20620;-75
2022/09/17 08:46:28;;;;;;;7.23;2.30;;;;;;;-141.28;100.00;49833.66;5071900;28;20198;-75
2022/09/17 08:49:05;;;;;;;8.50;2.50;;;;;;;-141.28;100.00;49835.63;5092570;28;20191;-75
2022/09/17 08:51:43;;;;;;;10.47;2.57;;;;;;;-141.28;100.00;49819.94;5100199;28;20215;-75
2022/09/17 08:54:18;;;;;;;12.73;3.40;;;;;;;-141.28;100.00;49780.69;5053639;28;20227;-76
2022/09/17 08:56:50;;;;;;;10.63;2.80;;;;;;;-141.28;100.00;49686.47;5078817;28;20195;-75
2022/09/17 08:59:25;;;;;;;12.47;3.00;;;;;;;-141.28;100.00;49633.50;5090790;28;20214;-75
2022/09/17 09:02:00;;;;;;;3.17;1.93;;;;;;;-141.28;100.00;49611.91;5071567;28;20199;-75
2022/09/17 09:04:57;;;;;;;7.07;2.50;;;;;;;-141.28;100.00;49623.69;5077563;28;20191;-75
2022/09/17 09:07:26;;;;;;;7.27;2.47;;;;;;;-141.28;100.00;49615.84;5111540;28;20238;-77
2022/09/17 09:10:05;;;;;;;5.87;2.00;;;;;;;-141.28;100.00;49588.34;5095048;28;20196;-77
2022/09/17 09:12:34;;;;;;;4.60;2.30;;;;;;;-141.28;100.00;49588.34;5078491;28;20221;-77
2022/09/17 09:15:06;;;;;;;12.83;2.90;;;;;;;-141.28;100.00;49545.19;5094406;28;20204;-75
2022/09/17 09:17:39;;;;;;;9.07;2.63;;;;;;;-141.28;100.00;49482.41;5089196;28;20266;-76
2022/09/17 09:20:15;;;;;;;8.03;2.70;;;;;;;-141.28;100.00;49456.88;5075260;28;20204;-76
2022/09/17 09:22:48;;;;;;;6.40;2.20;;;;;;;-141.28;100.00;49429.41;5075279;28;20204;-77
2022/09/17 09:25:22;;;;;;;8.37;2.60;;;;;;;-141.28;100.00;49319.53;5074926;28;20306;-75
2022/09/17 09:28:01;;;;;;;8.97;2.23;;;;;;;-141.28;100.00;49254.78;5074959;28;20238;-75
2022/09/17 09:30:42;;;;;;;8.00;2.17;;;;;;;-141.28;100.00;49223.38;5075656;28;20274;-74
2022/09/17 09:33:14;;;;;;;7.70;2.73;;;;;;;-141.28;100.00;49235.16;5075759;28;20235;-75
2022/09/17 09:35:43;;;;;;;5.27;2.20;;;;;;;-141.28;100.00;49156.66;5075181;28;20200;-76
2022/09/17 09:38:21;;;;;;;3.87;2.00;;;;;;;-141.28;100.00;49066.41;5075698;28;20296;-76
2022/09/17 09:40:53;;;;;;;7.20;2.93;;;;;;;-141.28;100.00;49011.47;5075850;28;20220;-75
2022/09/17 09:43:24;;;;;;;5.63;2.77;;;;;;;-141.28;100.00;48905.53;5089762;28;20678;-73
2022/09/17 09:46:06;;;;;;;7.87;2.57;;;;;;;-141.28;100.00;48834.91;5075367;28;20246;-77
2022/09/17 09:48:41;;;;;;;6.47;3.00;;;;;;;-141.28;100.00;48744.66;5088196;28;20224;-77
2022/09/17 09:51:24;;;;;;;10.17;3.03;;;;;;;-141.28;100.00;48689.72;5088509;28;20203;-76
2022/09/17 09:54:10;;;;;;;6.43;3.03;;;;;;;-141.28;100.00;48654.41;5084780;28;20296;-75
2022/09/17 09:56:54;;;;;;;9.17;3.53;;;;;;;-141.28;100.00;48632.84;5100277;28;20210;-76
2022/09/17 09:59:22;;;;;;;7.80;4.17;;;;;;;-141.28;100.00;48530.81;5084892;28;20196;-76
2022/09/17 10:01:51;;;;;;;11.17;4.30;;;;;;;-141.28;100.00;48466.09;5074622;28;20208;-76
2022/09/17 10:04:20;;;;;;;12.87;4.73;;;;;;;-141.28;100.00;48426.84;5076485;28;20724;-76
2022/09/17 10:06:49;;;;;;;8.20;4.50;;;;;;;-141.28;100.00;48430.78;5084520;28;20228;-77
2022/09/17 10:09:20;;;;;;;11.13;6.67;;;;;;;-141.28;100.00;48368.00;5081094;28;20195;-77
2022/09/17 10:12:00;;;;;;;25.40;15.17;;;;;;;-141.28;100.00;48446.47;5093081;28;20678;-75
2022/09/17 10:14:29;;;;;;;10.07;7.70;;;;;;;-141.28;100.00;48332.69;5087581;28;20196;-77
2022/09/17 10:17:19;;;;;;;15.57;9.00;;;;;;;-141.28;100.00;48371.91;5086735;28;20648;-79
2022/09/17 10:19:47;;;;;;;7.97;4.17;;;;;;;-141.28;100.00;48285.59;5083778;28;20199;-78
2022/09/17 10:22:31;;;;;;;8.20;3.80;;;;;;;-141.28;100.00;48285.59;5097023;28;20203;-76
2022/09/17 10:25:00;;;;;;;6.07;2.40;;;;;;;-141.28;100.00;48220.88;5100960;28;20206;-75
2022/09/17 10:27:29;;;;;;;5.20;2.70;;;;;;;-141.28;100.00;48195.38;5112713;28;20191;-76
2022/09/17 10:30:03;;;;;;;7.60;3.40;;;;;;;-141.28;100.00;48175.75;5113486;28;20199;-76
2022/09/17 10:32:34;;;;;;;9.60;3.03;;;;;;;-141.28;100.00;48167.91;5089073;28;20322;-76
2022/09/17 10:35:04;;;;;;;7.70;3.40;;;;;;;-141.28;100.00;48132.59;5109864;28;20195;-77
2022/09/17 10:37:44;;;;;;;8.07;3.20;;;;;;;-141.28;100.00;48140.47;5092834;28;20238;-77
2022/09/17 10:40:36;;;;;;;5.27;3.00;;;;;;;-141.28;100.00;48148.31;5093302;28;20210;-77
2022/09/17 10:43:22;;;;;;;6.10;2.90;;;;;;;-141.28;100.00;48120.84;5074774;28;20199;-79
2022/09/17 10:45:59;;;;;;;4.80;2.73;;;;;;;-141.28;100.00;48089.47;5073551;28;20317;-75
2022/09/17 10:48:34;;;;;;;6.10;3.20;;;;;;;-141.28;100.00;48071.81;5086890;28;20215;-75
2022/09/17 10:51:02;;;;;;;6.37;2.47;;;;;;;-141.28;100.00;48048.25;5086833;28;20260;-76
2022/09/17 10:53:29;;;;;;;4.97;2.60;;;;;;;-141.28;100.00;48022.75;5078872;28;20706;-74
2022/09/17 10:56:07;;;;;;;3.83;2.40;;;;;;;-141.28;100.00;48011.00;5095663;28;20221;-75
2022/09/17 10:58:47;;;;;;;4.90;2.17;;;;;;;-141.28;100.00;48022.75;5084931;28;20257;-76
2022/09/17 11:01:29;;;;;;;6.93;2.10;;;;;;;-141.28;100.00;48034.53;5090997;28;20584;-76
2022/09/17 11:04:25;;;;;;;5.17;2.17;;;;;;;-141.28;100.00;48077.69;5080663;28;20685;-75
2022/09/17 11:07:21;;;;;;;6.07;3.37;;;;;;;-141.28;100.00;48152.22;5073264;28;20281;-76
2022/09/17 11:09:55;;;;;;;4.33;2.60;;;;;;;-141.28;100.00;48152.22;5073198;28;20196;-75
2022/09/17 11:12:34;;;;;;;3.43;2.30;;;;;;;-141.28;100.00;48195.38;5075824;28;20224;-76
2022/09/17 11:15:12;;;;;;;8.10;2.87;;;;;;;-141.28;100.00;48230.69;5082566;28;20214;-75
2022/09/17 11:18:03;;;;;;;10.07;4.47;;;;;;;-141.28;100.00;48336.63;5079669;28;20286;-77
2022/09/17 11:20:55;;;;;;;4.83;3.00;;;;;;;-141.28;100.00;48466.09;5080384;28;20205;-77
2022/09/17 11:23:42;;;;;;;5.63;3.67;;;;;;;-141.28;100.00;48587.72;5080433;28;20200;-76
2022/09/17 11:26:32;;;;;;;4.93;2.77;;;;;;;-141.28;100.00;48819.22;5073389;28;20223;-76